Time;durP1;ratioP1;P1;durP2;ratioP2;P2;SDS_P1;SDS_P2;PMS_P1;PMS_P2;Temp;Humidity;BMP_temperature;BMP_pressure;BME280_temperature;BME280_humidity;BME280_pressure;Samples;Min_cycle;Max_cycle;Signal;HPM_P1;HPM_P2
2022/12/27 00:01:46;;;;;;;4.30;1.25;;;5.90;99.90;;;;;;5092635;28;20035;-78
2022/12/27 00:04:12;;;;;;;2.28;1.10;;;5.90;99.90;;;;;;5092669;28;20024;-81
2022/12/27 00:06:41;;;;;;;16.40;1.80;;;5.80;99.90;;;;;;5093807;28;20051;-79
2022/12/27 00:09:06;;;;;;;7.53;1.23;;;5.90;99.90;;;;;;5092482;28;20032;-80
2022/12/27 00:11:32;;;;;;;9.43;1.40;;;5.90;99.90;;;;;;5094042;28;20032;-78
2022/12/27 00:13:59;;;;;;;8.93;1.40;;;5.90;99.90;;;;;;5093708;28;20191;-79
2022/12/27 00:16:25;;;;;;;10.45;1.85;;;5.80;99.90;;;;;;5093692;28;20493;-78
2022/12/27 00:18:51;;;;;;;13.13;1.92;;;5.80;99.90;;;;;;5093386;28;20035;-79
2022/12/27 00:21:18;;;;;;;9.45;1.42;;;5.80;99.90;;;;;;5092172;28;20089;-79
2022/12/27 00:23:46;;;;;;;4.50;1.27;;;5.90;99.90;;;;;;5094237;28;20027;-79
2022/12/27 00:26:18;;;;;;;4.35;1.17;;;5.90;99.90;;;;;;5093686;28;20036;-78
2022/12/27 00:28:46;;;;;;;10.18;1.17;;;5.80;99.90;;;;;;5093364;28;20032;-79
2022/12/27 00:31:13;;;;;;;17.48;1.63;;;5.90;99.90;;;;;;5093762;28;20469;-79
2022/12/27 00:33:41;;;;;;;9.48;1.15;;;5.90;99.90;;;;;;5094489;28;20101;-79
2022/12/27 00:36:10;;;;;;;5.32;0.98;;;5.80;99.90;;;;;;5092099;28;20044;-81
2022/12/27 00:38:36;;;;;;;6.57;1.02;;;5.90;99.90;;;;;;5093966;28;20035;-80
2022/12/27 00:41:02;;;;;;;11.63;1.42;;;5.70;99.90;;;;;;5092756;28;20057;-80
2022/12/27 00:43:29;;;;;;;95.15;40.15;;;5.80;99.90;;;;;;5092402;28;20461;-80
2022/12/27 00:45:54;;;;;;;17.20;3.35;;;5.80;99.90;;;;;;5092131;28;20394;-81
2022/12/27 00:48:20;;;;;;;6.90;1.67;;;5.80;99.90;;;;;;5092472;28;20024;-80
2022/12/27 00:50:46;;;;;;;11.35;1.42;;;5.90;99.90;;;;;;5094119;28;20477;-80
2022/12/27 00:53:13;;;;;;;7.15;1.52;;;5.90;99.90;;;;;;5094352;28;20102;-79
2022/12/27 00:55:42;;;;;;;9.15;1.55;;;5.90;99.90;;;;;;5094549;28;20093;-80
2022/12/27 00:58:08;;;;;;;6.85;1.63;;;6.20;99.90;;;;;;5093504;28;20036;-78
2022/12/27 01:00:33;;;;;;;12.73;1.63;;;5.90;99.90;;;;;;5092124;28;20024;-80
2022/12/27 01:02:59;;;;;;;8.68;1.65;;;5.90;99.90;;;;;;5093059;28;20095;-79
2022/12/27 01:05:25;;;;;;;11.93;1.63;;;5.90;99.90;;;;;;5093472;28;20157;-78
2022/12/27 01:07:50;;;;;;;7.68;1.30;;;5.90;99.90;;;;;;5092770;28;20032;-77
2022/12/27 01:10:16;;;;;;;4.68;1.42;;;6.00;99.90;;;;;;5092758;28;20474;-79
2022/12/27 01:12:42;;;;;;;10.45;1.67;;;6.00;99.90;;;;;;5093267;28;20048;-78
2022/12/27 01:15:08;;;;;;;9.63;1.73;;;6.00;99.90;;;;;;5093427;28;20470;-77
2022/12/27 01:17:34;;;;;;;7.20;1.55;;;5.90;99.90;;;;;;5094147;28;20032;-78
2022/12/27 01:20:01;;;;;;;14.27;2.13;;;5.90;99.90;;;;;;5095477;28;20047;-79
2022/12/27 01:22:27;;;;;;;9.40;2.80;;;5.90;99.90;;;;;;5092239;28;20093;-79
2022/12/27 01:24:52;;;;;;;12.18;2.05;;;5.90;99.90;;;;;;5093420;28;20032;-79
2022/12/27 01:27:18;;;;;;;11.88;2.60;;;5.90;99.90;;;;;;5093103;28;20507;-78
2022/12/27 01:29:44;;;;;;;10.80;2.17;;;6.00;99.90;;;;;;5093525;28;20020;-78
2022/12/27 01:32:10;;;;;;;10.60;2.85;;;5.90;99.90;;;;;;5092768;28;20028;-79
2022/12/27 01:34:35;;;;;;;10.60;2.47;;;6.00;99.90;;;;;;5092014;28;20362;-79
2022/12/27 01:37:01;;;;;;;10.00;1.88;;;5.90;99.90;;;;;;5092431;28;20077;-79
2022/12/27 01:39:27;;;;;;;7.30;2.47;;;5.90;99.90;;;;;;5091277;28;20118;-79
2022/12/27 01:44:42;;;;;;;8.48;1.73;;;5.90;99.90;;;;;;5093063;28;20493;-79
2022/12/27 01:47:33;;;;;;;8.35;2.33;;;5.90;99.90;;;;;;5092521;28;20036;-78
2022/12/27 01:50:20;;;;;;;11.80;2.45;;;5.90;99.90;;;;;;5091965;28;20047;-78
2022/12/27 01:52:50;;;;;;;7.28;2.28;;;5.90;99.90;;;;;;5091713;28;20112;-79
2022/12/27 01:55:18;;;;;;;11.07;3.00;;;5.90;99.90;;;;;;5092100;28;20415;-79
2022/12/27 01:57:45;;;;;;;11.45;2.72;;;6.00;99.90;;;;;;5090753;28;20032;-78
2022/12/27 02:00:11;;;;;;;7.20;2.45;;;5.90;99.90;;;;;;5091700;28;20024;-80
2022/12/27 02:02:37;;;;;;;11.45;2.78;;;5.90;99.90;;;;;;5092455;28;20124;-79
2022/12/27 02:05:04;;;;;;;7.60;2.58;;;5.80;99.90;;;;;;5091889;28;20028;-79
2022/12/27 02:07:41;;;;;;;6.78;2.05;;;5.90;99.90;;;;;;5091778;28;20506;-80
2022/12/27 02:10:07;;;;;;;15.65;2.85;;;5.90;99.90;;;;;;5091075;28;20043;-79
2022/12/27 02:12:33;;;;;;;11.52;3.38;;;5.90;99.90;;;;;;5090739;28;20040;-80
2022/12/27 02:15:00;;;;;;;14.55;2.60;;;5.90;99.90;;;;;;5091244;28;20366;-79
2022/12/27 02:17:29;;;;;;;13.45;2.53;;;6.00;99.90;;;;;;5090709;28;20474;-80
2022/12/27 02:20:11;;;;;;;9.18;2.47;;;6.00;99.90;;;;;;5091375;28;20039;-79
2022/12/27 02:25:51;;;;;;;11.25;2.65;;;6.00;99.90;;;;;;5091726;28;20101;-80
2022/12/27 02:28:41;;;;;;;10.73;2.45;;;6.00;99.90;;;;;;5092075;28;20069;-78
2022/12/27 02:31:21;;;;;;;9.48;1.90;;;6.00;99.90;;;;;;5090985;28;20123;-79
2022/12/27 02:33:50;;;;;;;18.00;3.03;;;6.10;99.90;;;;;;5089219;28;20036;-78
2022/12/27 02:36:32;;;;;;;9.68;2.55;;;6.00;99.90;;;;;;5103030;28;20480;-79
2022/12/27 02:39:00;;;;;;;12.40;2.25;;;6.00;99.90;;;;;;5110997;28;20346;-79
2022/12/27 02:53:04;;;;;;;12.38;2.30;;;6.00;99.90;;;;;;5111375;28;20047;-79
2022/12/27 02:58:54;;;;;;;14.55;2.60;;;6.00;99.90;;;;;;5116598;28;20417;-80
2022/12/27 03:05:12;;;;;;;7.97;2.28;;;6.00;99.90;;;;;;5116901;28;20035;-77
2022/12/27 03:07:58;;;;;;;7.78;2.30;;;6.10;99.90;;;;;;5070467;28;20040;-77
2022/12/27 03:16:22;;;;;;;8.40;2.78;;;6.00;99.90;;;;;;5111329;28;19965;-78
2022/12/27 03:19:10;;;;;;;12.82;2.42;;;6.00;99.90;;;;;;5109673;28;20061;-78
2022/12/27 03:27:20;;;;;;;11.55;2.15;;;6.00;99.90;;;;;;5115165;28;20058;-79
2022/12/27 03:33:11;;;;;;;11.93;2.30;;;6.10;99.90;;;;;;5115008;28;20042;-78
2022/12/27 03:39:08;;;;;;;11.25;2.25;;;6.10;99.90;;;;;;5114864;28;20092;-77
2022/12/27 03:44:31;;;;;;;8.30;2.40;;;6.10;99.90;;;;;;5117811;28;20042;-78
2022/12/27 03:47:26;;;;;;;10.63;2.40;;;6.10;99.90;;;;;;5115522;28;20035;-79
2022/12/27 03:50:15;;;;;;;11.02;2.42;;;6.10;99.90;;;;;;5115125;28;20080;-79
2022/12/27 03:52:57;;;;;;;6.75;2.47;;;5.90;99.90;;;;;;5114829;28;20024;-80
2022/12/27 03:55:23;;;;;;;7.95;2.30;;;6.10;99.90;;;;;;5113501;28;20032;-79
2022/12/27 03:57:49;;;;;;;12.27;2.50;;;6.00;99.90;;;;;;5112796;28;20478;-79
2022/12/27 04:00:15;;;;;;;9.57;2.50;;;6.00;99.90;;;;;;5114401;28;20493;-78
2022/12/27 04:02:41;;;;;;;11.45;2.72;;;6.00;99.90;;;;;;5114945;28;20065;-78
2022/12/27 04:05:08;;;;;;;6.20;2.08;;;6.10;99.90;;;;;;5114332;28;20107;-80
2022/12/27 04:07:33;;;;;;;16.75;2.92;;;6.00;99.90;;;;;;5112531;28;20563;-79
2022/12/27 04:34:41;;;;;;;16.50;3.50;;;6.10;99.90;;;;;;5113670;28;20070;-79
2022/12/27 04:37:26;;;;;;;7.78;2.65;;;6.10;99.90;;;;;;5113734;28;20035;-78
2022/12/27 04:56:34;;;;;;;13.00;3.55;;;6.30;99.90;;;;;;5078381;28;20044;-78
2022/12/27 05:02:03;;;;;;;13.43;3.42;;;6.30;99.90;;;;;;5112604;28;20070;-78
2022/12/27 05:04:34;;;;;;;12.40;3.15;;;6.30;99.90;;;;;;5112779;28;20106;-79
2022/12/27 05:13:58;;;;;;;10.18;3.45;;;6.30;99.90;;;;;;5112043;28;20416;-75
2022/12/27 05:15:20;;;;;;;8.10;3.22;;;6.40;99.90;;;;;;5113033;28;20484;-78
2022/12/27 05:17:45;;;;;;;10.68;2.95;;;6.40;99.90;;;;;;5112816;28;20024;-79
2022/12/27 05:20:11;;;;;;;15.90;3.47;;;6.40;99.90;;;;;;5113164;28;20051;-78
2022/12/27 05:25:33;;;;;;;14.85;3.70;;;6.40;99.90;;;;;;5113189;27;20467;-79
2022/12/27 05:28:04;;;;;;;15.75;3.83;;;6.40;99.90;;;;;;5112915;28;20077;-78
2022/12/27 05:30:33;;;;;;;7.68;3.60;;;6.40;99.90;;;;;;5111447;28;20024;-79
2022/12/27 05:32:59;;;;;;;15.65;4.60;;;6.30;99.90;;;;;;5112813;28;20016;-79
2022/12/27 05:35:24;;;;;;;19.08;4.22;;;6.30;99.90;;;;;;5111850;28;20096;-79
2022/12/27 05:37:52;;;;;;;20.27;4.07;;;6.30;99.90;;;;;;5111545;28;20028;-79
2022/12/27 05:40:18;;;;;;;;;;;6.60;99.90;;;;;;5111997;28;20046;-77
2022/12/27 05:42:44;;;;;;;19.23;4.47;;;6.40;99.90;;;;;;5112372;28;19912;-77
2022/12/27 05:45:09;;;;;;;16.13;6.15;;;6.40;99.90;;;;;;5112451;28;20047;-78
2022/12/27 05:47:35;;;;;;;13.13;4.43;;;6.40;99.90;;;;;;5112716;28;20042;-77
2022/12/27 05:50:01;;;;;;;9.13;3.75;;;6.40;99.90;;;;;;5112631;27;20043;-78
2022/12/27 05:52:28;;;;;;;14.13;4.05;;;6.40;99.90;;;;;;5111090;28;20031;-79
2022/12/27 05:54:54;;;;;;;12.68;3.88;;;6.40;99.90;;;;;;5111119;28;20032;-80
2022/12/27 05:57:20;;;;;;;13.90;4.18;;;6.60;99.90;;;;;;5112307;28;20028;-78
2022/12/27 05:59:46;;;;;;;8.38;4.05;;;6.40;99.90;;;;;;5112508;28;20048;-77
2022/12/27 06:02:11;;;;;;;15.18;4.15;;;6.40;99.90;;;;;;5111024;28;20132;-77
2022/12/27 06:04:37;;;;;;;11.45;4.10;;;6.40;99.90;;;;;;5111789;28;20020;-77
2022/12/27 06:07:02;;;;;;;13.15;3.95;;;6.40;99.90;;;;;;5112124;28;20069;-79
2022/12/27 06:09:28;;;;;;;18.42;4.50;;;6.30;99.90;;;;;;5111688;27;20031;-80
2022/12/27 06:11:53;;;;;;;11.63;3.92;;;6.30;99.90;;;;;;5111577;28;20082;-77
2022/12/27 06:14:20;;;;;;;10.30;3.78;;;6.40;99.90;;;;;;5112039;28;20606;-79
2022/12/27 06:16:46;;;;;;;8.25;4.07;;;6.40;99.90;;;;;;5111662;28;20059;-78
2022/12/27 06:19:11;;;;;;;20.00;4.30;;;6.40;99.90;;;;;;5111471;28;20370;-79
2022/12/27 06:21:37;;;;;;;8.77;3.78;;;6.40;99.90;;;;;;5110403;28;20042;-79
2022/12/27 06:24:03;;;;;;;11.65;4.10;;;6.40;99.90;;;;;;5111467;28;20023;-80
2022/12/27 06:26:29;;;;;;;8.38;3.75;;;6.50;99.90;;;;;;5110993;28;20026;-80
2022/12/27 06:28:56;;;;;;;11.57;3.30;;;6.40;99.90;;;;;;5111351;28;20055;-80
2022/12/27 06:31:23;;;;;;;14.70;3.60;;;6.40;99.90;;;;;;5111366;28;20106;-79
2022/12/27 06:33:50;;;;;;;13.52;3.33;;;6.40;99.90;;;;;;5111365;28;20126;-80
2022/12/27 06:36:19;;;;;;;10.68;3.50;;;6.50;99.90;;;;;;5109945;28;20096;-79
2022/12/27 06:38:44;;;;;;;13.05;3.35;;;6.50;99.90;;;;;;5111902;28;20020;-78
2022/12/27 06:41:12;;;;;;;11.68;3.60;;;6.50;99.90;;;;;;5109957;28;20351;-78
2022/12/27 06:43:38;;;;;;;;;;;6.50;99.90;;;;;;5111669;28;20035;-78
2022/12/27 06:46:06;;;;;;;12.80;3.60;;;6.50;99.90;;;;;;5111211;28;19969;-78
2022/12/27 06:48:32;;;;;;;;;;;6.60;99.90;;;;;;5111496;28;20036;-77
2022/12/27 06:50:58;;;;;;;10.68;3.42;;;6.60;99.90;;;;;;5110984;28;20260;-79
2022/12/27 06:53:24;;;;;;;8.10;3.03;;;6.50;99.90;;;;;;5111378;28;20442;-78
2022/12/27 06:55:50;;;;;;;11.18;3.85;;;6.50;99.90;;;;;;5114165;28;20040;-77
2022/12/27 06:58:15;;;;;;;17.10;3.15;;;6.50;99.90;;;;;;5114283;28;20040;-78
2022/12/27 07:00:41;;;;;;;9.27;3.05;;;6.50;99.90;;;;;;5115041;27;20115;-80
2022/12/27 07:03:07;;;;;;;16.25;3.20;;;6.60;99.90;;;;;;5115306;28;20036;-77
2022/12/27 07:05:36;;;;;;;10.35;2.88;;;6.40;99.90;;;;;;5114592;28;20027;-79
2022/12/27 07:08:02;;;;;;;12.48;3.45;;;6.40;99.90;;;;;;5113949;28;20042;-79
2022/12/27 07:10:27;;;;;;;8.35;2.85;;;6.40;99.90;;;;;;5115414;28;20237;-79
2022/12/27 07:12:54;;;;;;;8.02;3.50;;;6.40;99.90;;;;;;5114617;28;20515;-78
2022/12/27 07:15:20;;;;;;;11.90;3.45;;;6.50;99.90;;;;;;5113586;28;20466;-78
2022/12/27 07:17:45;;;;;;;10.25;3.42;;;6.50;99.90;;;;;;5115363;28;20039;-79
2022/12/27 07:20:11;;;;;;;11.55;3.47;;;6.50;99.90;;;;;;5113701;28;20024;-80
2022/12/27 07:22:37;;;;;;;7.07;2.75;;;6.80;99.90;;;;;;5113853;28;20100;-80
2022/12/27 07:25:04;;;;;;;10.07;3.42;;;6.60;99.90;;;;;;5114905;28;20096;-80
2022/12/27 07:27:33;;;;;;;13.18;3.75;;;6.50;99.90;;;;;;5114846;28;20103;-79
2022/12/27 07:29:58;;;;;;;10.68;3.50;;;6.50;99.90;;;;;;5114777;27;20027;-80
2022/12/27 07:32:24;;;;;;;10.57;3.40;;;6.40;99.90;;;;;;5113995;28;20023;-80
2022/12/27 07:34:49;;;;;;;12.98;4.25;;;6.50;99.90;;;;;;5113559;28;20032;-80
2022/12/27 07:37:16;;;;;;;9.98;5.03;;;6.50;99.90;;;;;;5114639;28;20028;-80
2022/12/27 07:39:42;;;;;;;18.67;4.18;;;6.60;99.90;;;;;;5114656;28;20028;-77
2022/12/27 07:42:08;;;;;;;12.75;3.38;;;6.50;99.90;;;;;;5113411;28;20088;-80
2022/12/27 07:44:34;;;;;;;19.50;3.80;;;6.50;99.90;;;;;;5114968;28;20019;-79
2022/12/27 07:46:59;;;;;;;11.65;3.65;;;6.40;99.90;;;;;;5114287;28;20131;-79
2022/12/27 07:49:25;;;;;;;12.73;3.75;;;6.40;99.90;;;;;;5113366;28;20489;-80
2022/12/27 07:51:50;;;;;;;12.48;3.38;;;6.40;99.90;;;;;;5114332;27;20024;-79
2022/12/27 07:54:16;;;;;;;18.40;3.53;;;6.40;99.90;;;;;;5114147;28;20034;-78
2022/12/27 07:56:42;;;;;;;12.45;3.83;;;6.50;99.90;;;;;;5114587;28;20383;-79
2022/12/27 07:59:11;;;;;;;15.25;3.90;;;6.40;99.90;;;;;;5114179;28;20035;-79
2022/12/27 08:04:22;;;;;;;9.88;3.47;;;6.40;99.90;;;;;;5114212;28;20031;-79
2022/12/27 08:06:48;;;;;;;15.88;3.92;;;6.40;99.90;;;;;;5113223;28;20036;-79
2022/12/27 08:09:18;;;;;;;10.93;4.20;;;6.40;99.90;;;;;;5114102;28;20450;-80
2022/12/27 08:11:44;;;;;;;13.93;4.07;;;6.40;99.90;;;;;;5113128;28;20012;-78
2022/12/27 08:14:10;;;;;;;20.92;4.50;;;6.30;99.90;;;;;;5113842;27;20046;-79
2022/12/27 08:16:35;;;;;;;13.02;3.72;;;6.40;99.90;;;;;;5113586;28;20043;-78
2022/12/27 08:19:01;;;;;;;12.00;3.88;;;6.30;99.90;;;;;;5113990;28;20035;-79
2022/12/27 08:21:27;;;;;;;10.90;3.60;;;6.40;99.90;;;;;;5113781;28;20432;-80
2022/12/27 08:23:52;;;;;;;10.85;3.72;;;6.30;99.90;;;;;;5113603;28;20486;-80
2022/12/27 08:26:18;;;;;;;7.97;3.88;;;6.40;99.90;;;;;;5114137;28;20064;-79
2022/12/27 08:28:44;;;;;;;9.75;4.18;;;6.50;99.90;;;;;;5112376;28;20089;-78
2022/12/27 08:31:11;;;;;;;9.40;4.15;;;6.40;99.90;;;;;;5113560;28;20024;-80
2022/12/27 08:33:38;;;;;;;16.88;4.90;;;6.40;99.90;;;;;;5113483;28;20023;-78
2022/12/27 08:36:08;;;;;;;15.30;4.40;;;6.40;99.90;;;;;;5113338;28;20457;-79
2022/12/27 08:38:34;;;;;;;20.00;4.63;;;6.40;99.90;;;;;;5113646;28;20230;-79
2022/12/27 08:41:00;;;;;;;17.75;4.97;;;6.40;99.90;;;;;;5113353;28;20028;-80
2022/12/27 08:43:28;;;;;;;19.42;4.40;;;6.50;99.90;;;;;;5113305;28;20089;-80
2022/12/27 08:46:02;;;;;;;15.45;4.25;;;6.50;99.90;;;;;;5113141;28;20480;-78
2022/12/27 08:48:30;;;;;;;11.82;4.35;;;6.50;99.90;;;;;;5113099;27;20466;-79
2022/12/27 08:50:55;;;;;;;15.88;4.35;;;6.50;99.90;;;;;;5112796;28;20024;-79
2022/12/27 08:53:21;;;;;;;14.07;4.70;;;6.60;99.90;;;;;;5113478;28;20119;-80
2022/12/27 08:55:46;;;;;;;15.02;4.22;;;6.60;99.90;;;;;;5111820;28;20108;-80
2022/12/27 08:58:12;;;;;;;14.13;4.03;;;6.50;99.90;;;;;;5111822;28;20176;-79
2022/12/27 09:00:38;;;;;;;14.95;4.10;;;6.60;99.90;;;;;;5111848;28;20043;-78
2022/12/27 09:03:03;;;;;;;12.82;3.50;;;6.60;99.90;;;;;;5111674;28;20027;-78
2022/12/27 09:05:29;;;;;;;10.40;3.30;;;6.60;99.90;;;;;;5113661;28;20102;-79
2022/12/27 09:07:56;;;;;;;19.45;4.32;;;6.60;99.90;;;;;;5113043;28;20440;-78
2022/12/27 09:10:23;;;;;;;13.52;3.67;;;6.70;99.90;;;;;;5112810;27;20027;-78
2022/12/27 09:12:49;;;;;;;12.20;4.18;;;6.60;99.90;;;;;;5111456;28;20192;-81
2022/12/27 09:15:14;;;;;;;9.48;3.85;;;6.70;99.90;;;;;;5112553;28;20051;-78
2022/12/27 09:17:41;;;;;;;11.68;4.10;;;6.60;99.90;;;;;;5111121;28;20361;-79
2022/12/27 09:20:07;;;;;;;14.50;4.30;;;6.70;99.90;;;;;;5111153;28;20061;-79
2022/12/27 09:22:33;;;;;;;17.02;4.15;;;6.80;99.90;;;;;;5112539;27;20039;-79
2022/12/27 09:24:59;;;;;;;8.80;3.67;;;6.80;99.90;;;;;;5112281;28;20036;-79
2022/12/27 09:27:25;;;;;;;17.38;3.97;;;6.90;99.90;;;;;;5112467;28;20032;-80
2022/12/27 09:29:51;;;;;;;13.93;3.63;;;6.80;99.90;;;;;;5112071;28;20023;-78
2022/12/27 09:32:16;;;;;;;8.32;3.53;;;6.70;99.90;;;;;;5111504;28;20103;-77
2022/12/27 09:34:42;;;;;;;13.48;3.88;;;6.80;99.90;;;;;;5112157;28;20366;-79
2022/12/27 09:37:08;;;;;;;17.42;4.88;;;6.90;99.90;;;;;;5111929;28;20062;-78
2022/12/27 09:39:34;;;;;;;9.73;4.20;;;6.70;99.90;;;;;;5110996;28;20066;-78
2022/12/27 09:42:21;;;;;;;19.33;6.85;;;7.00;99.90;;;;;;5112167;28;20077;-79
2022/12/27 09:44:54;;;;;;;13.95;3.92;;;7.00;99.90;;;;;;5111030;28;20034;-79
2022/12/27 09:47:37;;;;;;;8.77;3.53;;;7.10;99.90;;;;;;5111505;28;20035;-79
2022/12/27 09:50:09;;;;;;;13.00;3.55;;;7.10;99.90;;;;;;5112009;28;20038;-78
2022/12/27 09:53:04;;;;;;;14.80;3.88;;;7.20;99.90;;;;;;5110881;28;20346;-80
2022/12/27 09:55:37;;;;;;;22.80;6.55;;;7.20;99.90;;;;;;5111340;28;20119;-80
2022/12/27 09:58:26;;;;;;;14.02;5.13;;;7.40;99.90;;;;;;5111931;28;20350;-78
2022/12/27 10:00:52;;;;;;;12.98;3.90;;;7.50;99.90;;;;;;5111795;28;20092;-78
2022/12/27 10:03:22;;;;;;;15.95;4.20;;;7.50;99.90;;;;;;5111371;28;20031;-79
2022/12/27 10:05:56;;;;;;;22.45;4.43;;;7.40;99.90;;;;;;5111914;28;20107;-80
2022/12/27 10:08:38;;;;;;;13.23;3.53;;;7.50;99.90;;;;;;5112105;28;20041;-79
2022/12/27 10:11:34;;;;;;;21.88;3.90;;;7.50;99.90;;;;;;5111506;28;20031;-79
2022/12/27 10:14:26;;;;;;;11.95;3.33;;;7.60;99.90;;;;;;5111100;27;20073;-78
2022/12/27 10:17:33;;;;;;;9.45;3.78;;;7.60;99.90;;;;;;5111316;28;20052;-78
2022/12/27 10:20:25;;;;;;;21.35;4.57;;;7.40;99.90;;;;;;5076323;28;20032;-77
2022/12/27 10:23:02;;;;;;;17.10;3.72;;;7.50;99.90;;;;;;5111291;28;20058;-78
2022/12/27 10:25:29;;;;;;;22.65;3.60;;;7.40;99.90;;;;;;5110172;28;20089;-78
2022/12/27 10:28:00;;;;;;;16.05;3.75;;;7.60;99.90;;;;;;5111264;28;20028;-78
2022/12/27 10:30:28;;;;;;;15.07;4.13;;;7.60;99.90;;;;;;5110360;28;20101;-78
2022/12/27 10:32:54;;;;;;;10.02;3.40;;;7.70;99.90;;;;;;5111273;28;20087;-78
2022/12/27 10:35:21;;;;;;;19.13;3.95;;;8.00;99.90;;;;;;5111507;28;20035;-78
2022/12/27 10:37:48;;;;;;;15.05;3.63;;;7.70;99.90;;;;;;5110128;28;20031;-78
2022/12/27 10:40:19;;;;;;;16.33;4.00;;;7.70;99.90;;;;;;5110112;28;20031;-78
2022/12/27 10:42:58;;;;;;;11.02;3.42;;;7.70;99.90;;;;;;5111565;28;20040;-79
2022/12/27 10:45:35;;;;;;;9.15;3.50;;;7.60;99.90;;;;;;5109963;28;20024;-79
2022/12/27 10:48:21;;;;;;;10.27;3.30;;;7.60;99.90;;;;;;5111254;28;20026;-78
2022/12/27 10:50:54;;;;;;;11.40;3.13;;;7.60;99.90;;;;;;5111644;28;20024;-79
2022/12/27 10:53:39;;;;;;;12.75;2.92;;;7.50;99.90;;;;;;5111434;28;20612;-79
2022/12/27 10:56:09;;;;;;;6.28;2.50;;;7.50;99.90;;;;;;5111287;28;20119;-80
2022/12/27 10:58:42;;;;;;;8.05;2.80;;;7.30;99.90;;;;;;5109836;28;20023;-78
2022/12/27 11:01:29;;;;;;;4.63;2.33;;;7.40;99.90;;;;;;5109969;28;20334;-78
2022/12/27 11:04:17;;;;;;;8.35;2.60;;;7.50;99.90;;;;;;5110766;28;20419;-79
2022/12/27 11:06:45;;;;;;;5.50;2.53;;;7.40;99.90;;;;;;5111271;28;20034;-77
2022/12/27 11:09:22;;;;;;;14.60;2.90;;;7.20;99.90;;;;;;5109642;28;20319;-79
2022/12/27 11:11:48;;;;;;;11.48;2.95;;;7.30;99.90;;;;;;5111135;28;20038;-80
2022/12/27 11:14:18;;;;;;;7.68;2.40;;;7.40;99.90;;;;;;5111662;28;20020;-79
2022/12/27 11:16:45;;;;;;;5.05;3.28;;;7.60;99.90;;;;;;5110958;28;20086;-79
2022/12/27 11:19:26;;;;;;;7.75;2.75;;;7.70;99.90;;;;;;5111097;28;20028;-79
2022/12/27 11:21:54;;;;;;;5.38;2.53;;;7.90;99.90;;;;;;5110884;28;20092;-78
2022/12/27 11:24:21;;;;;;;9.02;3.13;;;7.90;99.90;;;;;;5111102;28;20028;-78
2022/12/27 11:26:57;;;;;;;8.70;3.03;;;8.00;99.90;;;;;;5110557;28;20024;-79
2022/12/27 11:29:27;;;;;;;10.20;3.22;;;7.90;99.90;;;;;;5111027;28;20035;-78
2022/12/27 11:31:53;;;;;;;9.73;3.28;;;8.10;99.90;;;;;;5109575;28;20043;-77
2022/12/27 11:34:31;;;;;;;7.60;3.50;;;8.20;99.90;;;;;;5110861;28;20039;-78
2022/12/27 11:37:27;;;;;;;11.25;3.03;;;8.30;99.90;;;;;;5109643;28;20039;-78
2022/12/27 11:40:09;;;;;;;10.57;3.30;;;8.80;99.90;;;;;;5101742;28;20028;-77
2022/12/27 11:42:37;;;;;;;14.88;3.30;;;9.30;99.90;;;;;;5114457;28;20051;-78
2022/12/27 11:45:27;;;;;;;19.85;5.72;;;9.60;99.60;;;;;;5114130;28;20084;-77
2022/12/27 11:48:09;;;;;;;13.07;3.10;;;9.70;99.20;;;;;;5114339;28;20020;-78
2022/12/27 11:51:03;;;;;;;12.63;3.90;;;9.70;98.70;;;;;;5114673;28;20028;-79
2022/12/27 11:53:31;;;;;;;15.25;3.72;;;9.40;98.60;;;;;;5084364;28;20040;-78
2022/12/27 11:56:25;;;;;;;15.50;4.05;;;9.40;99.00;;;;;;5112704;28;20362;-79
2022/12/27 11:59:27;;;;;;;12.20;3.30;;;9.50;99.20;;;;;;5112763;28;20420;-79
2022/12/27 12:02:33;;;;;;;14.82;3.00;;;9.30;98.70;;;;;;5113992;28;20034;-79
2022/12/27 12:05:28;;;;;;;14.35;3.03;;;9.20;98.80;;;;;;5112915;28;20042;-77
2022/12/27 12:08:20;;;;;;;10.90;2.75;;;9.10;99.00;;;;;;5113911;28;20024;-79
2022/12/27 12:10:54;;;;;;;9.88;2.58;;;8.90;99.10;;;;;;5113278;28;20036;-79
2022/12/27 12:14:02;;;;;;;10.65;2.55;;;8.90;99.40;;;;;;5112897;28;20483;-78
2022/12/27 12:16:42;;;;;;;9.38;2.45;;;8.90;99.20;;;;;;5113229;28;20040;-78
2022/12/27 12:19:35;;;;;;;23.48;10.30;;;8.70;99.20;;;;;;5114019;28;20028;-80
2022/12/27 12:22:30;;;;;;;17.40;3.58;;;8.70;99.00;;;;;;5114257;28;20411;-78
2022/12/27 12:25:20;;;;;;;16.13;4.80;;;8.80;99.20;;;;;;5104499;27;20034;-78
2022/12/27 12:28:18;;;;;;;7.85;2.20;;;8.90;99.00;;;;;;5113923;28;20034;-79
2022/12/27 12:31:09;;;;;;;18.55;3.20;;;8.80;99.00;;;;;;5113805;27;20078;-78
2022/12/27 12:33:43;;;;;;;11.90;2.50;;;8.70;99.10;;;;;;5114266;28;20024;-79
2022/12/27 12:36:32;;;;;;;12.10;2.05;;;8.80;99.00;;;;;;5114134;28;20110;-77
2022/12/27 12:39:09;;;;;;;9.00;2.17;;;8.70;98.80;;;;;;5113626;28;20023;-78
2022/12/27 12:41:59;;;;;;;17.27;2.30;;;8.80;98.80;;;;;;5114513;28;20648;-77
2022/12/27 12:44:35;;;;;;;8.27;2.35;;;8.60;98.50;;;;;;5113969;27;20036;-79
2022/12/27 12:47:27;;;;;;;18.02;3.13;;;8.70;98.80;;;;;;5113517;27;20027;-76
2022/12/27 12:50:11;;;;;;;12.00;2.90;;;8.60;98.90;;;;;;5112474;28;20028;-78
2022/12/27 12:53:11;;;;;;;11.38;3.17;;;8.40;98.80;;;;;;5112580;28;20028;-78
2022/12/27 12:55:52;;;;;;;14.27;2.40;;;8.20;99.20;;;;;;5112101;28;20370;-79
2022/12/27 12:58:54;;;;;;;15.57;2.47;;;8.20;99.30;;;;;;5113631;28;20024;-78
2022/12/27 13:01:25;;;;;;;13.70;3.00;;;8.30;99.10;;;;;;5112812;28;20032;-78
2022/12/27 13:04:05;;;;;;;10.13;2.38;;;8.30;99.10;;;;;;5112178;28;20061;-79
2022/12/27 13:07:13;;;;;;;8.10;2.28;;;8.30;99.10;;;;;;5112306;28;20050;-78
2022/12/27 13:10:12;;;;;;;11.30;2.47;;;8.40;99.10;;;;;;5112012;28;20516;-78
2022/12/27 13:12:50;;;;;;;15.63;2.30;;;8.20;99.00;;;;;;5112973;28;20054;-78
2022/12/27 13:15:19;;;;;;;7.75;3.17;;;8.20;98.70;;;;;;5113140;28;20036;-78
2022/12/27 13:18:15;;;;;;;14.32;3.03;;;8.20;98.90;;;;;;5113524;28;20084;-79
2022/12/27 13:20:55;;;;;;;10.90;2.00;;;8.30;99.10;;;;;;5112421;28;20046;-79
2022/12/27 13:23:59;;;;;;;16.48;2.70;;;8.20;98.80;;;;;;5113131;28;20036;-78
2022/12/27 13:26:39;;;;;;;9.32;2.30;;;8.30;98.70;;;;;;5112811;28;20031;-78
2022/12/27 13:29:32;;;;;;;9.57;2.08;;;8.20;98.90;;;;;;5113035;28;20464;-77
2022/12/27 13:32:01;;;;;;;14.43;5.50;;;8.10;99.00;;;;;;5112641;28;20115;-78
2022/12/27 13:34:57;;;;;;;16.80;2.90;;;8.30;99.10;;;;;;5112698;28;20473;-77
2022/12/27 13:38:02;;;;;;;7.38;2.25;;;8.30;99.00;;;;;;5112526;28;20414;-78
2022/12/27 13:40:54;;;;;;;6.47;2.30;;;8.30;99.00;;;;;;5112378;28;20461;-78
2022/12/27 13:43:49;;;;;;;6.88;2.72;;;8.40;99.00;;;;;;5112539;28;20035;-79
2022/12/27 13:46:52;;;;;;;12.93;2.60;;;8.40;98.90;;;;;;5112520;28;20031;-79
2022/12/27 13:49:52;;;;;;;15.23;4.00;;;8.30;98.90;;;;;;5112523;28;20122;-78
2022/12/27 13:52:38;;;;;;;8.68;3.10;;;8.20;98.70;;;;;;5112877;28;20461;-78
2022/12/27 13:55:32;;;;;;;11.45;3.08;;;8.30;98.80;;;;;;5112308;28;20124;-77
2022/12/27 13:58:16;;;;;;;9.68;2.55;;;8.30;98.70;;;;;;5112537;28;20045;-77
2022/12/27 14:00:55;;;;;;;8.20;2.53;;;8.30;98.80;;;;;;5112462;28;20038;-78
2022/12/27 14:04:04;;;;;;;7.35;2.33;;;8.20;98.60;;;;;;5112047;28;20020;-76
2022/12/27 14:06:54;;;;;;;19.10;3.80;;;8.10;98.40;;;;;;5112354;28;20028;-79
2022/12/27 14:09:39;;;;;;;9.82;2.67;;;8.10;98.70;;;;;;5114099;28;20386;-79
2022/12/27 14:12:23;;;;;;;9.98;3.25;;;7.90;98.60;;;;;;5110899;28;20093;-78
2022/12/27 14:14:50;;;;;;;5.32;2.42;;;8.00;98.80;;;;;;5112752;28;20155;-79
2022/12/27 14:17:28;;;;;;;5.85;2.47;;;7.90;98.70;;;;;;5111229;28;20047;-80
2022/12/27 14:19:53;;;;;;;;;;;8.10;98.90;;;;;;5112749;27;20035;-79
2022/12/27 14:22:34;;;;;;;10.20;2.90;;;8.00;98.80;;;;;;5111042;28;20241;-78
2022/12/27 14:25:06;;;;;;;10.10;2.83;;;8.00;98.90;;;;;;5112339;28;20038;-80
2022/12/27 14:28:09;;;;;;;15.15;3.20;;;8.00;98.90;;;;;;5111964;28;20122;-79
2022/12/27 14:30:57;;;;;;;12.60;3.17;;;8.00;98.90;;;;;;5112537;28;20093;-78
2022/12/27 14:33:28;;;;;;;7.38;3.03;;;7.90;98.90;;;;;;5111953;28;20020;-79
2022/12/27 14:36:09;;;;;;;9.45;3.25;;;7.90;99.10;;;;;;5111973;28;20038;-79
2022/12/27 14:38:56;;;;;;;10.75;3.20;;;7.90;99.20;;;;;;5111865;28;20023;-78
2022/12/27 14:41:33;;;;;;;9.65;3.25;;;7.80;99.20;;;;;;5100594;28;20036;-78
2022/12/27 14:44:47;;;;;;;10.73;3.85;;;7.90;99.20;;;;;;5111451;28;20093;-80
2022/12/27 14:47:43;;;;;;;14.52;3.58;;;7.80;99.20;;;;;;5110854;28;20027;-80
2022/12/27 14:50:40;;;;;;;8.48;3.45;;;7.90;99.30;;;;;;5112022;28;20126;-79
2022/12/27 14:53:44;;;;;;;8.50;3.85;;;7.80;99.30;;;;;;5111527;28;20466;-78
2022/12/27 14:56:32;;;;;;;16.67;4.88;;;7.70;99.30;;;;;;5086689;28;20032;-78
2022/12/27 14:59:22;;;;;;;16.63;4.70;;;7.70;99.50;;;;;;5111424;28;20471;-78
2022/12/27 15:01:57;;;;;;;12.15;4.28;;;7.60;99.50;;;;;;5111161;28;20023;-79
2022/12/27 15:04:35;;;;;;;12.68;4.47;;;7.60;99.70;;;;;;5111236;28;20038;-79
2022/12/27 15:07:21;;;;;;;10.50;6.22;;;7.70;99.80;;;;;;5110393;28;20061;-78